Time;durP1;ratioP1;P1;durP2;ratioP2;P2;SDS_P1;SDS_P2;PMS_P1;PMS_P2;Temp;Humidity;BMP_temperature;BMP_pressure;BME280_temperature;BME280_humidity;BME280_pressure;Samples;Min_cycle;Max_cycle;Signal;HPM_P1;HPM_P2
2023/01/27 00:00:07;;;;;;;12.75;1.63;;;;;;;4.74;100.00;102077.81;5019154;28;20069;-82
2023/01/27 00:02:33;;;;;;;15.77;1.92;;;;;;;4.76;100.00;102083.19;5035201;28;20033;-82
2023/01/27 00:04:58;;;;;;;12.40;2.28;;;;;;;4.65;100.00;102078.13;5018993;28;20044;-83
2023/01/27 00:07:24;;;;;;;17.70;2.13;;;;;;;4.61;100.00;102079.19;5018468;28;20124;-82
2023/01/27 00:09:50;;;;;;;16.00;2.30;;;;;;;4.64;100.00;102075.47;5018472;28;20068;-82
2023/01/27 00:15:06;;;;;;;22.17;2.63;;;;;;;4.81;100.00;102072.19;5036050;28;20038;-82
2023/01/27 00:17:32;;;;;;;20.25;2.40;;;;;;;4.69;100.00;102078.91;5005725;28;20022;-82
2023/01/27 00:19:58;;;;;;;16.70;1.83;;;;;;;4.66;100.00;102060.94;5019723;28;20428;-82
2023/01/27 00:25:08;;;;;;;16.15;2.42;;;;;;;4.53;100.00;102075.84;5009175;28;20116;-82
2023/01/27 00:27:33;;;;;;;16.42;2.10;;;;;;;4.51;100.00;102081.34;5035220;28;20548;-82
2023/01/27 00:29:59;;;;;;;12.45;1.98;;;;;;;4.55;100.00;102077.56;5035048;28;20055;-83
2023/01/27 00:35:08;;;;;;;15.32;2.00;;;;;;;4.53;100.00;102084.88;5035975;28;20033;-82
2023/01/27 00:37:34;;;;;;;12.85;2.30;;;;;;;4.47;100.00;102086.91;5051907;28;20044;-82
2023/01/27 00:39:59;;;;;;;14.25;2.17;;;;;;;4.60;100.00;102080.13;5018271;28;20108;-82
2023/01/27 00:42:25;;;;;;;12.25;2.63;;;;;;;4.44;100.00;102076.16;5002403;28;20495;-82
2023/01/27 00:47:34;;;;;;;17.55;2.30;;;;;;;4.53;100.00;102082.16;5029527;28;20037;-82
2023/01/27 00:49:59;;;;;;;12.85;2.45;;;;;;;4.47;100.00;102078.78;5047358;28;20076;-82
2023/01/27 00:52:25;;;;;;;17.42;2.60;;;;;;;4.45;100.00;102084.25;5041544;28;20121;-82
2023/01/27 00:54:50;;;;;;;19.20;2.15;;;;;;;4.33;100.00;102087.34;5033895;28;20473;-82
2023/01/27 00:57:16;;;;;;;12.95;2.35;;;;;;;4.35;100.00;102085.50;5067908;28;20378;-83
2023/01/27 00:59:41;;;;;;;19.60;2.22;;;;;;;4.34;100.00;102086.41;5034937;28;20037;-83
2023/01/27 01:02:07;;;;;;;23.33;2.90;;;;;;;4.43;100.00;102096.97;5033995;28;20191;-83
2023/01/27 01:04:32;;;;;;;21.15;2.47;;;;;;;4.34;100.00;102098.16;5049643;28;20038;-82
2023/01/27 01:06:57;;;;;;;10.50;2.05;;;;;;;4.50;100.00;102094.94;5033749;28;20116;-82
2023/01/27 01:09:23;;;;;;;13.38;1.75;;;;;;;4.40;100.00;102103.38;5034541;28;20042;-82
2023/01/27 01:11:48;;;;;;;8.00;2.10;;;;;;;4.30;100.00;102101.91;5036364;28;20115;-82
2023/01/27 01:14:14;;;;;;;13.30;2.22;;;;;;;4.24;100.00;102094.84;5010937;28;20034;-82
2023/01/27 01:16:39;;;;;;;15.32;2.58;;;;;;;4.21;100.00;102088.66;5019932;28;20547;-82
2023/01/27 01:19:05;;;;;;;14.10;2.28;;;;;;;4.38;100.00;102097.13;5018659;28;20025;-82
2023/01/27 01:21:30;;;;;;;7.22;2.33;;;;;;;4.28;100.00;102097.47;4990328;28;20104;-82
2023/01/27 01:23:56;;;;;;;16.42;2.80;;;;;;;4.40;100.00;102106.09;5018374;28;20030;-82
2023/01/27 01:26:21;;;;;;;14.48;2.95;;;;;;;4.32;100.00;102110.88;5034328;28;20337;-82
2023/01/27 01:28:47;;;;;;;12.32;2.25;;;;;;;4.26;100.00;102108.34;5001462;28;20046;-82
2023/01/27 01:31:16;;;;;;;13.15;3.00;;;;;;;4.19;100.00;102117.63;5001407;28;20124;-82
2023/01/27 01:33:41;;;;;;;19.30;3.10;;;;;;;4.37;100.00;102118.84;5035675;28;20087;-82
2023/01/27 01:36:10;;;;;;;15.40;3.22;;;;;;;4.29;100.00;102110.09;5017834;28;20037;-82
2023/01/27 01:38:36;;;;;;;16.98;3.38;;;;;;;4.14;100.00;102120.47;5065230;28;20491;-82
2023/01/27 01:41:02;;;;;;;18.15;3.20;;;;;;;4.21;100.00;102108.53;5035147;28;20037;-82
2023/01/27 01:43:27;;;;;;;11.65;4.03;;;;;;;3.92;100.00;102076.03;5014177;28;20113;-82
2023/01/27 01:45:55;;;;;;;23.92;3.80;;;;;;;4.14;100.00;102111.47;5014297;28;20045;-82
2023/01/27 01:48:25;;;;;;;7.72;3.13;;;;;;;4.08;100.00;102099.00;5029386;28;20060;-82
2023/01/27 01:50:55;;;;;;;18.13;4.45;;;;;;;4.03;100.00;102090.13;5031487;28;20492;-82
2023/01/27 01:53:28;;;;;;;12.02;3.40;;;;;;;4.11;100.00;102109.75;5022604;28;20034;-82
2023/01/27 01:55:56;;;;;;;16.98;3.72;;;;;;;4.00;100.00;102107.38;5033995;28;20041;-83
2023/01/27 01:58:22;;;;;;;20.17;3.72;;;;;;;4.20;100.00;102124.84;5032704;28;20049;-82
2023/01/27 02:00:48;;;;;;;16.15;4.03;;;;;;;4.13;100.00;102116.03;5035189;28;20483;-82
2023/01/27 02:03:13;;;;;;;16.65;3.97;;;;;;;4.09;100.00;102118.88;5016810;28;20120;-82
2023/01/27 02:05:42;;;;;;;15.65;3.80;;;;;;;4.15;100.00;102122.28;5045911;28;20473;-82
2023/01/27 02:08:16;;;;;;;14.48;4.00;;;;;;;4.24;100.00;102121.06;5037952;28;20492;-82
2023/01/27 02:10:41;;;;;;;19.02;3.92;;;;;;;4.11;100.00;102120.56;5017127;28;20393;-82
2023/01/27 02:13:07;;;;;;;15.52;4.30;;;;;;;4.21;100.00;102118.47;5016310;28;20030;-82
2023/01/27 02:15:33;;;;;;;19.00;3.38;;;;;;;4.27;100.00;102120.97;5048495;28;20037;-81
2023/01/27 02:18:00;;;;;;;13.82;3.67;;;;;;;4.28;100.00;102130.91;5033183;28;20378;-82
2023/01/27 02:20:34;;;;;;;11.40;4.50;;;;;;;4.26;100.00;102135.47;5033688;28;20123;-82
2023/01/27 02:23:13;;;;;;;9.15;4.13;;;;;;;4.22;100.00;102129.25;5034977;28;20029;-82
2023/01/27 02:25:54;;;;;;;14.75;5.10;;;;;;;4.34;100.00;102129.81;5015002;28;20128;-82
2023/01/27 02:28:19;;;;;;;15.25;5.03;;;;;;;4.34;100.00;102132.50;5028476;28;20030;-82
2023/01/27 02:30:45;;;;;;;12.73;4.13;;;;;;;4.24;100.00;102130.09;5018545;28;20054;-82
2023/01/27 02:33:12;;;;;;;13.20;5.20;;;;;;;4.33;100.00;102141.56;5016957;28;20033;-82
2023/01/27 02:36:15;;;;;;;10.10;4.43;;;;;;;4.31;100.00;102132.59;5022713;28;20532;-82
2023/01/27 02:38:49;;;;;;;15.77;5.97;;;;;;;4.26;100.00;102140.88;5033953;28;20329;-82
2023/01/27 02:41:32;;;;;;;15.80;6.35;;;;;;;4.14;100.00;102130.44;5018293;28;20099;-82
2023/01/27 02:43:58;;;;;;;25.58;6.80;;;;;;;4.20;100.00;102124.84;5050626;28;20140;-82
2023/01/27 02:46:24;;;;;;;15.32;6.13;;;;;;;4.31;100.00;102144.38;5015589;28;20511;-81
2023/01/27 02:48:49;;;;;;;13.60;6.10;;;;;;;4.28;100.00;102136.31;5039509;28;20037;-82
2023/01/27 02:51:15;;;;;;;16.15;6.55;;;;;;;4.21;100.00;102143.78;5016450;28;20111;-82
2023/01/27 02:53:41;;;;;;;12.77;6.22;;;;;;;4.41;100.00;102126.84;5032087;28;20040;-82
2023/01/27 02:56:06;;;;;;;15.82;6.40;;;;;;;4.23;100.00;102141.88;5033626;28;20025;-82
2023/01/27 02:58:32;;;;;;;16.77;5.63;;;;;;;4.31;100.00;102141.66;5048544;28;20395;-82
2023/01/27 03:00:57;;;;;;;21.70;5.88;;;;;;;4.18;100.00;102134.81;4999180;28;20045;-82
2023/01/27 03:03:23;;;;;;;12.55;6.20;;;;;;;4.15;100.00;102143.94;5028529;28;20476;-82
2023/01/27 03:05:50;;;;;;;21.73;7.40;;;;;;;4.15;100.00;102119.56;5017783;28;20025;-82
2023/01/27 03:08:16;;;;;;;16.40;7.03;;;;;;;4.17;100.00;102128.53;5032543;28;20038;-81
2023/01/27 03:10:42;;;;;;;22.05;8.13;;;;;;;4.16;100.00;102134.00;5028040;28;20106;-82
2023/01/27 03:13:08;;;;;;;24.15;9.30;;;;;;;4.17;100.00;102152.03;5032850;28;20112;-82
2023/01/27 03:18:17;;;;;;;19.30;7.82;;;;;;;4.14;100.00;102141.28;5022949;28;20064;-82
2023/01/27 03:20:46;;;;;;;23.63;9.27;;;;;;;4.15;100.00;102146.66;5024261;28;20112;-82
2023/01/27 03:23:13;;;;;;;23.52;9.85;;;;;;;4.20;100.00;102150.13;5014331;28;20056;-82
2023/01/27 03:25:44;;;;;;;30.48;10.10;;;;;;;4.25;100.00;102152.69;5013887;28;20105;-82
2023/01/27 03:28:10;;;;;;;17.85;7.32;;;;;;;4.29;100.00;102154.34;5012456;28;20030;-82
2023/01/27 03:30:36;;;;;;;25.65;9.68;;;;;;;4.13;100.00;102156.69;5055453;28;20397;-82
2023/01/27 03:33:04;;;;;;;25.02;9.55;;;;;;;4.29;100.00;102158.88;5032421;28;20048;-82
2023/01/27 03:35:33;;;;;;;18.85;9.25;;;;;;;4.29;100.00;102161.59;5048760;28;20120;-82
2023/01/27 03:46:14;;;;;;;19.70;8.60;;;;;;;4.07;100.00;102172.22;5030184;28;20485;-82
2023/01/27 03:48:39;;;;;;;27.38;10.30;;;;;;;4.18;100.00;102156.50;5011125;28;20066;-82
2023/01/27 03:51:07;;;;;;;23.23;10.40;;;;;;;4.13;100.00;102169.31;5032558;28;20484;-82
2023/01/27 03:53:34;;;;;;;24.90;10.30;;;;;;;4.11;100.00;102169.38;5032933;28;20041;-82
2023/01/27 03:56:00;;;;;;;22.13;8.90;;;;;;;3.97;100.00;102155.38;5031835;28;20112;-83
2023/01/27 03:58:29;;;;;;;23.88;10.48;;;;;;;4.24;100.00;102180.72;5036019;28;20135;-82
2023/01/27 04:00:57;;;;;;;23.38;9.65;;;;;;;4.05;100.00;102177.72;5040883;28;20037;-82
2023/01/27 04:09:09;;;;;;;19.88;9.80;;;;;;;4.08;100.00;102196.56;5050867;28;20548;-83
2023/01/27 04:14:19;;;;;;;27.58;11.73;;;;;;;3.80;100.00;102181.13;5025420;28;20531;-82
2023/01/27 04:16:45;;;;;;;19.73;9.30;;;;;;;3.94;100.00;102191.56;5026894;28;20088;-82
2023/01/27 04:19:11;;;;;;;22.00;9.52;;;;;;;3.97;100.00;102204.16;4983500;28;20030;-81
2023/01/27 04:21:37;;;;;;;24.00;7.85;;;;;;;4.02;100.00;102197.63;5028619;28;20040;-82
2023/01/27 04:24:04;;;;;;;21.38;8.88;;;;;;;3.92;100.00;102203.38;5012336;28;20484;-82
2023/01/27 04:26:33;;;;;;;20.50;9.32;;;;;;;3.79;100.00;102186.63;5004520;28;20401;-82
2023/01/27 04:29:02;;;;;;;22.42;11.23;;;;;;;3.95;100.00;102201.47;5025524;28;20080;-82
2023/01/27 04:31:27;;;;;;;24.20;10.75;;;;;;;3.77;100.00;102192.06;5031923;28;20029;-82
2023/01/27 04:33:53;;;;;;;19.33;9.95;;;;;;;3.77;100.00;102193.88;5032023;28;20038;-82
2023/01/27 04:36:18;;;;;;;20.58;9.57;;;;;;;3.76;100.00;102189.41;5015718;28;20444;-82
2023/01/27 04:38:44;;;;;;;23.33;9.90;;;;;;;3.75;100.00;102195.75;5015138;28;20088;-82
2023/01/27 04:41:09;;;;;;;23.40;9.65;;;;;;;3.87;100.00;102195.41;5017652;28;20034;-82
2023/01/27 04:43:35;;;;;;;23.13;9.27;;;;;;;3.80;100.00;102197.38;5009314;28;20037;-82
2023/01/27 04:46:01;;;;;;;21.00;9.90;;;;;;;3.75;100.00;102198.44;5035998;28;20120;-82
2023/01/27 04:48:26;;;;;;;22.63;9.23;;;;;;;3.82;100.00;102200.03;5015776;28;20042;-82
2023/01/27 04:50:52;;;;;;;23.92;11.02;;;;;;;3.73;100.00;102205.75;5009170;28;20042;-82
2023/01/27 04:53:17;;;;;;;21.23;10.50;;;;;;;3.70;100.00;102206.69;5002755;28;20041;-83
2023/01/27 04:55:46;;;;;;;26.20;10.98;;;;;;;3.56;100.00;102184.53;5018550;28;20033;-83
2023/01/27 04:58:12;;;;;;;29.50;11.43;;;;;;;3.47;100.00;102181.16;5010184;28;20030;-82
2023/01/27 05:00:37;;;;;;;29.30;12.70;;;;;;;3.75;100.00;102203.88;5015299;28;20385;-81
2023/01/27 05:03:04;;;;;;;19.05;9.43;;;;;;;3.65;100.00;102198.69;4991008;28;20029;-82
2023/01/27 05:05:31;;;;;;;25.58;10.50;;;;;;;3.72;100.00;102220.19;5000091;28;20034;-81
2023/01/27 05:08:02;;;;;;;23.80;10.40;;;;;;;3.79;100.00;102219.13;5035394;28;20038;-81
2023/01/27 05:10:27;;;;;;;28.38;12.30;;;;;;;3.61;100.00;102207.00;5033755;28;20462;-81
2023/01/27 05:12:53;;;;;;;25.00;11.57;;;;;;;3.66;100.00;102221.28;5035286;28;20052;-81
2023/01/27 05:15:18;;;;;;;27.35;11.00;;;;;;;3.62;100.00;102219.56;5017906;28;20060;-82
2023/01/27 05:17:44;;;;;;;23.40;11.40;;;;;;;3.71;100.00;102224.75;5035230;28;20029;-82
2023/01/27 05:20:10;;;;;;;23.05;10.55;;;;;;;3.66;100.00;102224.00;5035011;28;20080;-82
2023/01/27 05:22:35;;;;;;;30.23;12.00;;;;;;;3.67;100.00;102217.63;5015809;28;20587;-82
2023/01/27 05:25:01;;;;;;;29.55;11.35;;;;;;;3.64;100.00;102217.69;5029294;28;20132;-82
2023/01/27 05:27:26;;;;;;;26.42;12.77;;;;;;;3.63;100.00;102218.66;5016360;28;20083;-82
2023/01/27 05:29:51;;;;;;;22.63;11.55;;;;;;;3.60;100.00;102238.56;5023234;28;20132;-82
2023/01/27 05:32:17;;;;;;;26.85;11.15;;;;;;;3.52;100.00;102229.78;5015208;28;20040;-82
2023/01/27 05:34:42;;;;;;;28.13;12.07;;;;;;;3.45;100.00;102220.94;5018922;28;20152;-82
2023/01/27 05:37:08;;;;;;;25.13;10.73;;;;;;;3.49;100.00;102225.34;5035829;28;20392;-81
2023/01/27 05:39:33;;;;;;;28.38;12.02;;;;;;;3.37;100.00;102225.66;5032772;28;20064;-80
2023/01/27 05:41:59;;;;;;;34.33;12.27;;;;;;;3.42;100.00;102225.53;5017716;28;20037;-79
2023/01/27 05:44:24;;;;;;;23.10;11.43;;;;;;;3.41;100.00;102213.84;5017480;28;20163;-80
2023/01/27 05:46:49;;;;;;;23.25;11.50;;;;;;;3.42;100.00;102218.31;5019877;28;20036;-79
2023/01/27 05:49:15;;;;;;;27.67;11.75;;;;;;;3.54;100.00;102225.19;5017332;28;20041;-79
2023/01/27 05:51:41;;;;;;;29.70;11.88;;;;;;;3.45;100.00;102225.47;5037261;28;20030;-80
2023/01/27 05:54:07;;;;;;;27.80;11.40;;;;;;;3.42;100.00;102229.13;5017892;28;20107;-80
2023/01/27 05:56:33;;;;;;;25.13;11.43;;;;;;;3.28;100.00;102206.94;5033498;28;20063;-79
2023/01/27 05:58:58;;;;;;;23.98;10.43;;;;;;;3.23;100.00;102204.41;5034355;28;20041;-82
2023/01/27 06:01:27;;;;;;;25.08;9.82;;;;;;;3.53;100.00;102233.38;5015621;28;21484;-83
2023/01/27 06:03:53;;;;;;;26.65;11.20;;;;;;;3.42;100.00;102229.13;5034300;28;20040;-83
2023/01/27 06:06:20;;;;;;;25.48;11.48;;;;;;;3.47;100.00;102231.72;5030236;28;20026;-84
2023/01/27 06:08:46;;;;;;;23.48;11.38;;;;;;;3.44;100.00;102221.88;5022005;28;20033;-83
2023/01/27 06:11:13;;;;;;;21.77;11.32;;;;;;;3.62;100.00;102239.44;5036170;28;20037;-83
2023/01/27 06:13:39;;;;;;;24.70;10.38;;;;;;;3.43;100.00;102214.69;5032881;28;20109;-83
2023/01/27 06:16:10;;;;;;;20.92;9.80;;;;;;;3.45;100.00;102230.88;5016735;28;20022;-83
2023/01/27 06:18:37;;;;;;;28.63;10.95;;;;;;;3.47;100.00;102229.88;5035435;28;20132;-83
2023/01/27 06:21:04;;;;;;;26.85;11.38;;;;;;;3.49;100.00;102237.97;5033754;28;20049;-84
2023/01/27 06:23:31;;;;;;;21.40;9.77;;;;;;;3.41;100.00;102235.50;5020396;28;20515;-84
2023/01/27 06:26:02;;;;;;;22.77;10.50;;;;;;;3.43;100.00;102241.75;5030564;28;20396;-83
2023/01/27 06:28:29;;;;;;;23.23;11.20;;;;;;;3.48;100.00;102247.94;5031568;28;20407;-83
2023/01/27 06:30:56;;;;;;;20.05;10.63;;;;;;;3.59;100.00;102250.34;5037300;28;20033;-83
2023/01/27 06:33:21;;;;;;;16.92;9.90;;;;;;;3.68;100.00;102244.66;5038796;28;20390;-82
2023/01/27 06:35:47;;;;;;;20.80;10.35;;;;;;;3.69;100.00;102256.41;5024380;28;20067;-83
2023/01/27 06:38:14;;;;;;;24.42;11.10;;;;;;;3.59;100.00;102260.28;5037134;28;20041;-83
2023/01/27 06:40:40;;;;;;;20.40;9.85;;;;;;;3.71;100.00;102250.94;5047759;28;20102;-84
2023/01/27 06:43:13;;;;;;;21.80;10.07;;;;;;;3.71;100.00;102257.25;5031339;28;20072;-82
2023/01/27 06:45:39;;;;;;;19.27;9.10;;;;;;;3.81;100.00;102268.72;5016844;28;20061;-83
2023/01/27 06:48:04;;;;;;;19.65;9.52;;;;;;;3.77;100.00;102264.31;5032322;28;20033;-83
2023/01/27 06:50:30;;;;;;;20.10;10.30;;;;;;;3.73;100.00;102262.63;5032768;28;20068;-83
2023/01/27 06:53:00;;;;;;;18.95;10.45;;;;;;;3.65;100.00;102263.69;5011543;28;20220;-83
2023/01/27 06:55:29;;;;;;;20.55;9.75;;;;;;;3.77;100.00;102267.00;5037911;28;20033;-83
2023/01/27 06:57:55;;;;;;;24.70;9.52;;;;;;;3.80;100.00;102265.09;5014618;28;20041;-83
2023/01/27 07:00:21;;;;;;;25.75;9.90;;;;;;;3.70;100.00;102260.88;5012751;28;20060;-84
2023/01/27 07:02:46;;;;;;;19.58;10.60;;;;;;;3.74;100.00;102275.22;5013999;28;20443;-83
2023/01/27 07:05:12;;;;;;;19.33;11.05;;;;;;;3.76;100.00;102273.38;5017057;28;20037;-82
2023/01/27 07:07:38;;;;;;;17.83;10.00;;;;;;;3.57;100.00;102267.56;5015773;28;20033;-83
2023/01/27 07:10:05;;;;;;;21.70;9.70;;;;;;;3.78;100.00;102276.91;5032511;28;20053;-83
2023/01/27 07:12:31;;;;;;;18.63;10.10;;;;;;;3.76;100.00;102271.56;5036225;28;20647;-82
2023/01/27 07:14:56;;;;;;;18.23;9.68;;;;;;;3.79;100.00;102279.59;5010599;28;20116;-82
2023/01/27 07:17:22;;;;;;;22.88;10.05;;;;;;;3.76;100.00;102279.66;5016352;28;20041;-83
2023/01/27 07:19:47;;;;;;;20.02;10.38;;;;;;;3.90;100.00;102287.41;5024599;28;20071;-83
2023/01/27 07:22:12;;;;;;;16.95;8.70;;;;;;;3.90;100.00;102265.72;5015749;28;20036;-83
2023/01/27 07:24:38;;;;;;;19.13;9.55;;;;;;;3.73;100.00;102276.16;5016371;28;20037;-83
2023/01/27 07:27:03;;;;;;;18.35;9.95;;;;;;;3.68;100.00;102288.00;5012166;28;20042;-83
2023/01/27 07:29:29;;;;;;;18.88;10.40;;;;;;;3.64;100.00;102288.13;5020135;28;20049;-84
2023/01/27 07:31:54;;;;;;;17.85;9.90;;;;;;;3.64;100.00;102275.50;5009215;28;20041;-81
2023/01/27 07:34:20;;;;;;;21.58;10.88;;;;;;;3.70;100.00;102293.38;5026317;28;20026;-82
2023/01/27 07:36:46;;;;;;;17.90;9.40;;;;;;;3.65;100.00;102282.66;5031403;28;20045;-82
2023/01/27 07:39:12;;;;;;;25.20;10.85;;;;;;;3.65;100.00;102285.38;4984234;28;20485;-82
2023/01/27 07:41:37;;;;;;;16.80;9.68;;;;;;;3.64;100.00;102296.25;5049950;28;20117;-78
2023/01/27 07:44:03;;;;;;;16.95;8.75;;;;;;;3.73;100.00;102296.00;5031638;28;20065;-81
2023/01/27 07:46:28;;;;;;;18.83;9.02;;;;;;;3.65;100.00;102295.31;5019467;28;20404;-80
2023/01/27 07:48:54;;;;;;;16.30;8.93;;;;;;;3.74;100.00;102303.22;5016488;28;20034;-82
2023/01/27 07:51:19;;;;;;;20.95;10.02;;;;;;;3.78;100.00;102302.19;5001477;28;20144;-80
2023/01/27 07:53:45;;;;;;;18.27;8.40;;;;;;;3.79;100.00;102305.81;5033880;28;20041;-82
2023/01/27 07:56:10;;;;;;;16.58;8.63;;;;;;;3.69;100.00;102302.44;5032820;28;20219;-80
2023/01/27 07:58:41;;;;;;;16.60;8.95;;;;;;;3.85;100.00;102309.22;5027969;28;20038;-80
2023/01/27 08:01:11;;;;;;;17.50;7.97;;;;;;;3.88;100.00;102313.66;5032986;28;20037;-82
2023/01/27 08:03:37;;;;;;;13.52;8.63;;;;;;;3.92;100.00;102319.88;5048433;28;20056;-80
2023/01/27 08:06:08;;;;;;;15.48;8.13;;;;;;;3.95;100.00;102314.38;5030218;28;20074;-80
2023/01/27 08:08:34;;;;;;;16.63;8.38;;;;;;;4.02;100.00;102316.88;5024007;28;20059;-79
2023/01/27 08:11:07;;;;;;;16.20;7.68;;;;;;;4.01;100.00;102325.06;5024607;28;20037;-79
2023/01/27 08:13:34;;;;;;;11.63;7.40;;;;;;;3.89;100.00;102310.03;5020286;28;20044;-80
2023/01/27 08:16:02;;;;;;;11.68;7.47;;;;;;;3.79;100.00;102301.25;5039778;28;20017;-83
2023/01/27 08:18:28;;;;;;;12.25;7.38;;;;;;;4.00;100.00;102312.41;5045059;28;20057;-83
2023/01/27 08:20:54;;;;;;;13.35;7.93;;;;;;;3.95;100.00;102309.88;5034200;28;20419;-85
2023/01/27 08:23:23;;;;;;;12.25;7.05;;;;;;;3.90;100.00;102327.16;5016541;28;20058;-81
2023/01/27 08:25:53;;;;;;;11.55;6.70;;;;;;;3.96;100.00;102314.34;5002395;28;20048;-82
2023/01/27 08:28:20;;;;;;;9.80;5.47;;;;;;;3.99;100.00;102295.28;5020278;28;20045;-81
2023/01/27 08:30:46;;;;;;;9.35;5.75;;;;;;;4.09;100.00;102312.16;5019692;28;20049;-81
2023/01/27 08:33:12;;;;;;;9.75;5.80;;;;;;;4.16;100.00;102321.00;5036366;28;20103;-82
2023/01/27 08:35:41;;;;;;;8.77;5.65;;;;;;;4.15;100.00;102317.44;5052207;28;20124;-81
2023/01/27 08:38:07;;;;;;;11.77;6.43;;;;;;;3.85;100.00;102311.03;5037810;28;20443;-81
2023/01/27 08:40:33;;;;;;;9.77;6.20;;;;;;;3.88;100.00;102315.50;5069338;28;20030;-80
2023/01/27 08:43:00;;;;;;;10.27;5.88;;;;;;;4.02;100.00;102319.59;5036959;28;20037;-83
2023/01/27 08:45:26;;;;;;;9.43;6.22;;;;;;;4.09;100.00;102328.44;5035709;28;20037;-83
2023/01/27 08:47:52;;;;;;;8.95;6.22;;;;;;;4.09;100.00;102333.84;5002459;28;20048;-82
2023/01/27 08:50:17;;;;;;;8.20;5.78;;;;;;;4.14;100.00;102328.31;5021252;28;20393;-82
2023/01/27 08:52:43;;;;;;;9.23;5.97;;;;;;;4.26;100.00;102327.94;5019233;28;20037;-80
2023/01/27 08:55:08;;;;;;;10.73;5.80;;;;;;;4.14;100.00;102334.59;5037054;28;20037;-81
2023/01/27 08:57:34;;;;;;;6.78;5.25;;;;;;;4.13;100.00;102340.06;5050870;28;20511;-82
2023/01/27 09:00:00;;;;;;;7.00;5.30;;;;;;;4.13;100.00;102327.44;5036844;28;20037;-81
2023/01/27 09:02:25;;;;;;;7.47;5.13;;;;;;;4.34;100.00;102338.56;5018542;28;20065;-82
2023/01/27 09:04:51;;;;;;;8.00;5.70;;;;;;;4.17;100.00;102341.78;5016772;28;20098;-79
2023/01/27 09:07:17;;;;;;;9.05;5.50;;;;;;;4.21;100.00;102335.31;5033353;28;20119;-84
2023/01/27 09:09:46;;;;;;;9.60;5.20;;;;;;;4.20;100.00;102348.00;5054010;28;20033;-82
2023/01/27 09:12:12;;;;;;;9.90;4.93;;;;;;;4.11;100.00;102334.69;5011198;28;20046;-81
2023/01/27 09:14:37;;;;;;;10.10;5.70;;;;;;;4.26;100.00;102351.47;5021119;28;20064;-82
2023/01/27 09:17:03;;;;;;;10.63;5.97;;;;;;;4.39;100.00;102352.88;5070998;28;20093;-82
2023/01/27 09:19:28;;;;;;;8.80;4.90;;;;;;;4.28;100.00;102365.84;5038782;28;20040;-82
2023/01/27 09:21:54;;;;;;;7.15;5.28;;;;;;;4.30;100.00;102366.72;5066836;28;20052;-82
2023/01/27 09:24:19;;;;;;;6.55;4.90;;;;;;;4.38;100.00;102368.28;5033597;28;20041;-81
2023/01/27 09:26:45;;;;;;;7.65;5.15;;;;;;;4.53;100.00;102366.94;5035159;28;20540;-81
2023/01/27 09:29:10;;;;;;;6.38;4.65;;;;;;;4.50;100.00;102360.72;5011951;28;20042;-80
2023/01/27 09:31:36;;;;;;;8.60;4.68;;;;;;;4.48;100.00;102373.44;5020586;28;20041;-80
2023/01/27 09:34:03;;;;;;;9.23;5.18;;;;;;;4.32;100.00;102376.56;5069032;28;20083;-79
2023/01/27 09:36:30;;;;;;;7.85;4.72;;;;;;;4.66;100.00;102372.00;5031860;28;20046;-80
2023/01/27 09:39:03;;;;;;;7.20;4.43;;;;;;;4.56;100.00;102364.13;5029484;28;20054;-81
2023/01/27 09:41:47;;;;;;;;;;;;;;;4.68;100.00;102376.44;5058501;28;20040;-80
2023/01/27 09:44:21;;;;;;;7.03;4.47;;;;;;;4.58;100.00;102367.69;5026163;28;19917;-79
2023/01/27 09:46:56;;;;;;;5.40;3.90;;;;;;;4.74;100.00;102378.09;5064088;28;20033;-80
2023/01/27 09:49:37;;;;;;;7.03;4.30;;;;;;;4.69;100.00;102374.59;5028193;28;20044;-81
2023/01/27 09:52:54;;;;;;;7.03;4.55;;;;;;;4.80;100.00;102377.88;5016754;28;20046;-82
2023/01/27 09:55:41;;;;;;;6.38;3.22;;;;;;;4.86;100.00;102380.41;5013254;28;20060;-81
2023/01/27 09:58:25;;;;;;;4.95;3.88;;;;;;;4.84;100.00;102392.25;5027523;28;20431;-80
2023/01/27 10:01:03;;;;;;;6.88;3.97;;;;;;;4.93;100.00;102391.97;5020259;28;20034;-80
2023/01/27 10:04:10;;;;;;;5.82;4.53;;;;;;;4.81;100.00;102386.94;5036522;28;20037;-81
2023/01/27 10:07:01;;;;;;;4.80;3.67;;;;;;;4.86;100.00;102385.84;4999101;28;20061;-80
2023/01/27 10:09:52;;;;;;;4.53;3.60;;;;;;;5.03;100.00;102388.03;5018467;28;20040;-81
2023/01/27 10:12:30;;;;;;;5.47;3.85;;;;;;;4.87;100.00;102384.00;5036125;28;20038;-80
2023/01/27 10:15:14;;;;;;;4.90;3.78;;;;;;;4.90;100.00;102390.25;5015398;28;20044;-80
2023/01/27 10:17:46;;;;;;;6.00;3.72;;;;;;;4.88;100.00;102386.69;5009362;28;20040;-80
2023/01/27 10:20:54;;;;;;;4.10;3.50;;;;;;;4.85;100.00;102389.50;5024727;28;20116;-82
2023/01/27 10:23:48;;;;;;;4.22;2.95;;;;;;;4.93;100.00;102379.28;5022806;28;20033;-83
2023/01/27 10:26:33;;;;;;;4.78;3.53;;;;;;;5.03;100.00;102385.31;5010284;28;20523;-84
2023/01/27 10:29:05;;;;;;;7.80;3.88;;;;;;;4.95;100.00;102387.38;5018672;28;20488;-82
2023/01/27 10:31:36;;;;;;;5.15;3.70;;;;;;;5.09;100.00;102376.09;5030356;28;20397;-80
2023/01/27 10:34:35;;;;;;;4.70;3.10;;;;;;;5.12;100.00;102376.91;5019679;28;20531;-84
2023/01/27 10:37:30;;;;;;;5.75;3.58;;;;;;;5.23;100.00;102389.22;5058579;28;20060;-81
2023/01/27 10:40:07;;;;;;;4.68;3.83;;;;;;;5.11;100.00;102375.09;5036811;28;20112;-83
2023/01/27 10:43:06;;;;;;;5.28;4.00;;;;;;;5.20;100.00;102375.75;5042079;28;20224;-84
2023/01/27 10:45:54;;;;;;;4.57;3.72;;;;;;;5.16;100.00;102369.53;5043613;28;20063;-83
2023/01/27 10:48:34;;;;;;;6.22;3.38;;;;;;;5.17;100.00;102367.72;5026637;28;20026;-82
2023/01/27 10:51:19;;;;;;;5.47;4.00;;;;;;;5.47;100.00;102360.38;5047554;28;20168;-80
2023/01/27 10:54:03;;;;;;;4.40;3.40;;;;;;;5.24;100.00;102356.59;5027083;28;20067;-80
2023/01/27 10:56:36;;;;;;;5.10;3.70;;;;;;;5.12;100.00;102351.59;5033635;28;20045;-81
2023/01/27 10:59:27;;;;;;;6.50;3.15;;;;;;;5.42;100.00;102362.38;5050351;28;20515;-80
2023/01/27 11:01:59;;;;;;;7.28;3.88;;;;;;;5.25;100.00;102361.09;5035642;28;20040;-80
2023/01/27 11:04:27;;;;;;;4.93;3.78;;;;;;;5.33;100.00;102361.75;5039103;28;20029;-81
2023/01/27 11:06:54;;;;;;;4.78;3.83;;;;;;;5.32;100.00;102354.53;5055280;28;20072;-80
2023/01/27 11:09:27;;;;;;;6.90;4.28;;;;;;;5.42;100.00;102362.38;5015802;28;20034;-80
2023/01/27 11:11:57;;;;;;;4.60;2.97;;;;;;;5.31;100.00;102354.56;5031755;28;20504;-80
2023/01/27 11:14:27;;;;;;;5.43;3.72;;;;;;;5.25;100.00;102361.09;5014801;28;20029;-81
2023/01/27 11:17:11;;;;;;;5.53;3.90;;;;;;;5.46;100.00;102356.81;5030414;28;20026;-80
2023/01/27 11:19:55;;;;;;;4.22;2.83;;;;;;;5.44;100.00;102361.38;5051864;28;20629;-80
2023/01/27 11:22:32;;;;;;;5.57;3.90;;;;;;;5.41;100.00;102360.59;5040782;28;20052;-77
2023/01/27 11:25:09;;;;;;;6.00;4.13;;;;;;;5.21;100.00;102362.13;5035137;28;20037;-77
2023/01/27 11:27:47;;;;;;;5.78;3.03;;;;;;;5.41;100.00;102357.88;5052035;28;20033;-77
2023/01/27 11:30:18;;;;;;;6.15;4.18;;;;;;;5.25;100.00;102352.09;5068971;28;20048;-78
2023/01/27 11:32:57;;;;;;;6.20;4.10;;;;;;;5.17;100.00;102351.44;5035090;28;20021;-78
2023/01/27 11:35:23;;;;;;;5.28;4.05;;;;;;;5.14;100.00;102344.28;5032975;28;20034;-77
2023/01/27 11:37:50;;;;;;;6.10;4.35;;;;;;;5.36;100.00;102362.56;5018134;28;20097;-78
2023/01/27 11:40:28;;;;;;;7.43;4.43;;;;;;;5.53;100.00;102365.63;5057086;28;20033;-77
2023/01/27 11:42:56;;;;;;;8.88;4.30;;;;;;;5.38;100.00;102357.97;5051285;28;20029;-77
2023/01/27 11:45:23;;;;;;;6.47;4.32;;;;;;;5.38;100.00;102364.31;5035355;28;20037;-77
2023/01/27 11:47:54;;;;;;;4.95;3.95;;;;;;;5.22;100.00;102352.19;5022752;28;20033;-78
2023/01/27 11:50:23;;;;;;;7.95;4.85;;;;;;;5.34;100.00;102359.91;5040555;28;20040;-78
2023/01/27 11:52:54;;;;;;;7.03;4.22;;;;;;;5.28;100.00;102344.72;5065415;28;20123;-80
2023/01/27 11:55:24;;;;;;;5.25;3.30;;;;;;;5.55;100.00;102350.16;5051228;28;20033;-77